createdAt,value
2023-02-23T00:00:50.783Z,101620.06
2023-02-23T00:05:55.882Z,101612.03
2023-02-23T00:11:01.670Z,101603.16
2023-02-23T00:16:22.039Z,101599.38
2023-02-23T00:21:34.274Z,101613.81
2023-02-23T00:26:41.162Z,101606.47
2023-02-23T00:31:47.820Z,101600.75
2023-02-23T00:36:56.729Z,101613.03
2023-02-23T00:42:04.505Z,101610.41
2023-02-23T00:47:10.968Z,101622.38
2023-02-23T00:52:16.246Z,101628.13
2023-02-23T00:57:21.297Z,101628.75
2023-02-23T01:02:27.084Z,101627.91
2023-02-23T01:07:32.921Z,101636.56
2023-02-23T01:12:39.000Z,101650.41
2023-02-23T01:17:44.502Z,101652.03
2023-02-23T01:22:52.906Z,101632.09
2023-02-23T01:27:58.412Z,101649.44
2023-02-23T01:33:04.169Z,101645.97
2023-02-23T01:38:09.311Z,101645.97
2023-02-23T01:43:17.020Z,101649.28
2023-02-23T01:48:25.718Z,101634.66
2023-02-23T01:53:37.447Z,101641.59
2023-02-23T01:58:46.998Z,101637.31
2023-02-23T02:04:08.596Z,101646.63
2023-02-23T02:09:18.953Z,101638.59
2023-02-23T02:14:31.999Z,101643.34
2023-02-23T02:20:15.949Z,101631.63
2023-02-23T02:25:31.886Z,101636.31
2023-02-23T02:31:08.510Z,101635.09
2023-02-23T02:37:00.361Z,101639.91
2023-02-23T02:42:24.899Z,101624.28
2023-02-23T02:47:56.025Z,101616.31
2023-02-23T02:53:09.856Z,101615.94
2023-02-23T02:58:19.419Z,101612.56
2023-02-23T03:04:08.027Z,101614.53
2023-02-23T03:09:52.247Z,101597.59
2023-02-23T03:15:38.496Z,101589.38
2023-02-23T03:21:18.667Z,101584.75
2023-02-23T03:26:44.684Z,101582.00
2023-02-23T03:32:32.871Z,101572.53
2023-02-23T03:38:05.875Z,101583.72
2023-02-23T03:43:31.903Z,101582.41
2023-02-23T03:48:58.787Z,101588.44
2023-02-23T03:54:53.745Z,101589.94
2023-02-23T04:00:24.841Z,101578.59
2023-02-23T04:05:51.182Z,101573.25
2023-02-23T04:11:34.622Z,101559.78
2023-02-23T04:16:41.633Z,101556.84
2023-02-23T04:21:46.715Z,101544.38
2023-02-23T04:26:51.902Z,101518.91
2023-02-23T04:31:57.069Z,101519.09
2023-02-23T04:37:02.198Z,101506.63
2023-02-23T04:42:07.419Z,101486.09
2023-02-23T04:47:13.252Z,101515.34
2023-02-23T04:52:19.533Z,101500.72
2023-02-23T04:57:24.877Z,101466.69
2023-02-23T05:02:30.101Z,101476.03
2023-02-23T05:07:35.745Z,101466.69
2023-02-23T05:12:41.057Z,101444.75
2023-02-23T05:17:46.353Z,101452.03
2023-02-23T05:22:51.632Z,101432.13
2023-02-23T05:27:56.774Z,101429.72
2023-02-23T05:33:03.091Z,101421.56
2023-02-23T05:38:08.291Z,101414.25
2023-02-23T05:43:13.453Z,101408.56
2023-02-23T05:48:19.666Z,101398.03
2023-02-23T05:53:25.186Z,101404.00
2023-02-23T05:58:30.416Z,101389.88
2023-02-23T06:03:35.666Z,101396.84
2023-02-23T06:08:42.376Z,101379.31
2023-02-23T06:13:47.611Z,101383.13
2023-02-23T06:18:52.768Z,101382.63
2023-02-23T06:24:01.814Z,101380.56
2023-02-23T06:29:06.860Z,101373.25
2023-02-23T06:34:12.799Z,101373.94
2023-02-23T06:39:18.000Z,101369.75
2023-02-23T06:44:23.995Z,101396.00
2023-02-23T06:49:29.104Z,101377.03
2023-02-23T06:54:35.587Z,101360.34
2023-02-23T06:59:40.858Z,101373.41
2023-02-23T07:04:46.086Z,101369.13
2023-02-23T07:09:51.407Z,101368.66
2023-02-23T07:14:56.464Z,101374.91
2023-02-23T07:20:02.023Z,101402.13
2023-02-23T07:25:08.656Z,101373.81
2023-02-23T07:30:13.586Z,101362.28
2023-02-23T07:35:19.039Z,101373.53
2023-02-23T07:40:24.462Z,101358.69
2023-02-23T07:45:29.808Z,101351.59
2023-02-23T07:50:35.095Z,101362.28
2023-02-23T07:55:41.416Z,101356.44
2023-02-23T08:00:46.621Z,101359.00
2023-02-23T08:05:52.024Z,101364.78
2023-02-23T08:11:07.114Z,101356.53
2023-02-23T08:16:13.794Z,101367.72
2023-02-23T08:21:19.413Z,101372.91
2023-02-23T08:26:26.547Z,101368.28
2023-02-23T08:31:32.260Z,101378.59
2023-02-23T08:36:37.165Z,101368.09
2023-02-23T08:41:42.687Z,101379.50
2023-02-23T08:46:47.937Z,101388.50
2023-02-23T08:51:53.846Z,101406.00
2023-02-23T08:56:59.643Z,101400.03
2023-02-23T09:02:04.979Z,101409.00
2023-02-23T09:07:12.961Z,101424.13
2023-02-23T09:12:18.081Z,101439.41
2023-02-23T09:17:24.304Z,101435.31
2023-02-23T09:22:29.354Z,101433.09
2023-02-23T09:27:36.020Z,101437.94
2023-02-23T09:32:41.191Z,101452.19
2023-02-23T09:37:57.851Z,101477.91
2023-02-23T09:43:08.714Z,101454.16
2023-02-23T09:48:33.023Z,101465.78
2023-02-23T09:53:45.188Z,101482.50
2023-02-23T09:58:51.636Z,101479.88
2023-02-23T10:03:56.280Z,101485.88
2023-02-23T10:09:23.827Z,101492.59
2023-02-23T10:14:44.226Z,101502.16
2023-02-23T10:20:00.906Z,101500.34
2023-02-23T10:25:15.096Z,101507.25
2023-02-23T10:30:42.379Z,101517.81
2023-02-23T10:35:48.328Z,101530.00
2023-02-23T10:40:57.514Z,101568.56
2023-02-23T10:46:03.385Z,101554.34
2023-02-23T10:51:16.114Z,101574.28
2023-02-23T10:56:24.402Z,101595.00
2023-02-23T11:02:01.896Z,101586.69
2023-02-23T11:07:09.354Z,101584.63
2023-02-23T11:12:37.449Z,101587.78
2023-02-23T11:17:42.711Z,101594.25
2023-02-23T11:22:49.103Z,101593.03
2023-02-23T11:27:58.362Z,101598.81
2023-02-23T11:33:11.912Z,101605.38
2023-02-23T11:38:18.013Z,101602.25
2023-02-23T11:43:23.903Z,101605.34
2023-02-23T11:48:40.097Z,101626.63
2023-02-23T11:53:48.764Z,101612.22
2023-02-23T11:59:11.988Z,101623.13
2023-02-23T12:04:34.936Z,101631.41
2023-02-23T12:09:40.137Z,101646.88
2023-02-23T12:15:16.900Z,101643.94
2023-02-23T12:20:31.685Z,101659.78
2023-02-23T12:25:54.366Z,101665.19
2023-02-23T12:31:22.167Z,101675.13
2023-02-23T12:36:39.897Z,101674.28
2023-02-23T12:41:58.103Z,101689.53
2023-02-23T12:47:26.332Z,101701.22
2023-02-23T12:52:40.452Z,101706.75
2023-02-23T12:58:04.137Z,101709.19
2023-02-23T13:03:27.307Z,101723.59
2023-02-23T13:08:48.283Z,101744.00
2023-02-23T13:14:22.469Z,101748.09
2023-02-23T13:19:36.042Z,101755.78
2023-02-23T13:24:45.583Z,101763.34
2023-02-23T13:29:57.282Z,101775.06
2023-02-23T13:35:05.608Z,101777.25
2023-02-23T13:40:19.024Z,101782.72
2023-02-23T13:45:24.468Z,101786.06
2023-02-23T13:50:34.635Z,101784.84
2023-02-23T13:55:51.056Z,101800.25
2023-02-23T14:01:18.508Z,101802.84
2023-02-23T14:06:28.299Z,101811.84
2023-02-23T14:11:52.209Z,101819.16
2023-02-23T14:17:12.273Z,101808.47
2023-02-23T14:22:23.516Z,101812.56
2023-02-23T14:27:46.409Z,101814.00
2023-02-23T14:32:52.443Z,101812.75
2023-02-23T14:38:21.185Z,101824.34
2023-02-23T14:43:44.534Z,101825.06
2023-02-23T14:49:11.540Z,101824.78
2023-02-23T14:54:28.404Z,101839.44
2023-02-23T14:59:44.279Z,101832.59
2023-02-23T15:04:49.711Z,101855.56
2023-02-23T15:09:58.756Z,101860.41
2023-02-23T15:15:18.778Z,101869.44
2023-02-23T15:20:30.075Z,101870.03
2023-02-23T15:25:40.838Z,101883.50
2023-02-23T15:30:49.350Z,101883.00
2023-02-23T15:36:02.764Z,101891.13
2023-02-23T15:41:16.647Z,101895.91
2023-02-23T15:46:28.643Z,101903.03
2023-02-23T15:51:51.350Z,101906.41
2023-02-23T15:57:05.656Z,101919.22
2023-02-23T16:02:20.784Z,101926.06
2023-02-23T16:07:30.140Z,101932.09
2023-02-23T16:12:40.663Z,101939.06
2023-02-23T16:17:49.082Z,101985.91
2023-02-23T16:22:57.079Z,102002.59
2023-02-23T16:28:11.498Z,101967.50
2023-02-23T16:33:49.821Z,101977.56
2023-02-23T16:39:03.234Z,101982.34
2023-02-23T16:44:14.097Z,101995.78
2023-02-23T16:49:19.620Z,101997.75
2023-02-23T16:54:24.894Z,102006.13
2023-02-23T16:59:31.652Z,102052.44
2023-02-23T17:04:36.969Z,102057.59
2023-02-23T17:09:42.192Z,102019.41
2023-02-23T17:14:47.471Z,102016.81
2023-02-23T17:19:52.741Z,102033.25
2023-02-23T17:24:58.160Z,102028.25
2023-02-23T17:30:03.446Z,102039.69
2023-02-23T17:35:09.440Z,102053.91
2023-02-23T17:40:20.064Z,102055.19
2023-02-23T17:45:26.075Z,102056.41
2023-02-23T17:50:31.305Z,102070.97
2023-02-23T17:55:36.352Z,102078.28
2023-02-23T18:00:41.451Z,102080.59
2023-02-23T18:05:49.397Z,102084.72
2023-02-23T18:10:56.097Z,102094.00
2023-02-23T18:16:09.632Z,102106.56
2023-02-23T18:21:21.084Z,102099.00
2023-02-23T18:26:26.607Z,102112.56
2023-02-23T18:31:32.042Z,102123.66
2023-02-23T18:36:39.499Z,102102.72
2023-02-23T18:41:44.944Z,102119.75
2023-02-23T18:46:50.610Z,102119.41
2023-02-23T18:51:56.001Z,102133.41
2023-02-23T18:57:01.137Z,102136.97
2023-02-23T19:02:07.288Z,102155.31
2023-02-23T19:07:12.547Z,102154.47
2023-02-23T19:12:17.740Z,102157.19
2023-02-23T19:17:23.060Z,102176.28
2023-02-23T19:22:29.773Z,102183.31
2023-02-23T19:27:35.782Z,102188.50
2023-02-23T19:32:41.069Z,102197.09
2023-02-23T19:37:54.176Z,102204.19
2023-02-23T19:42:59.469Z,102214.75
2023-02-23T19:48:05.007Z,102227.06
2023-02-23T19:53:10.338Z,102217.75
2023-02-23T19:58:16.025Z,102223.03
2023-02-23T20:03:27.603Z,102231.69
2023-02-23T20:08:32.931Z,102231.66
2023-02-23T20:13:40.256Z,102242.03
2023-02-23T20:18:46.021Z,102253.16
2023-02-23T20:23:52.414Z,102258.09
2023-02-23T20:28:59.340Z,102253.59
2023-02-23T20:34:08.901Z,102262.00
2023-02-23T20:39:18.047Z,102274.97
2023-02-23T20:44:26.171Z,102280.22
2023-02-23T20:49:31.328Z,102291.53
2023-02-23T20:54:37.941Z,102302.72
2023-02-23T20:59:44.403Z,102304.38
2023-02-23T21:04:49.510Z,102311.25
2023-02-23T21:10:01.277Z,102330.06
2023-02-23T21:15:07.305Z,102335.94
2023-02-23T21:20:15.555Z,102348.72
2023-02-23T21:25:22.937Z,102354.63
2023-02-23T21:30:29.714Z,102356.47
2023-02-23T21:35:36.520Z,102362.91
2023-02-23T21:40:43.472Z,102374.53
2023-02-23T21:45:48.782Z,102424.00
2023-02-23T21:50:53.816Z,102382.63
2023-02-23T21:55:58.964Z,102387.84
2023-02-23T22:01:15.068Z,102398.94
2023-02-23T22:06:22.554Z,102398.09
2023-02-23T22:11:29.976Z,102412.78
2023-02-23T22:16:37.469Z,102421.38
2023-02-23T22:21:44.082Z,102430.78
2023-02-23T22:26:55.704Z,102452.28
2023-02-23T22:32:01.021Z,102453.94
2023-02-23T22:37:06.129Z,102458.25
2023-02-23T22:42:13.908Z,102478.09
2023-02-23T22:47:18.960Z,102485.94
2023-02-23T22:52:24.151Z,102489.53
2023-02-23T22:57:30.181Z,102486.22
2023-02-23T23:02:37.241Z,102507.97
2023-02-23T23:07:43.454Z,102526.97
2023-02-23T23:12:50.092Z,102527.03
2023-02-23T23:17:55.300Z,102532.16
2023-02-23T23:23:00.454Z,102551.09
2023-02-23T23:28:06.200Z,102559.63
2023-02-23T23:33:13.054Z,102570.72
2023-02-23T23:38:18.699Z,102585.19
2023-02-23T23:43:24.153Z,102603.88
2023-02-23T23:48:29.644Z,102610.59
2023-02-23T23:53:35.701Z,102662.38
2023-02-23T23:58:40.909Z,102662.97
